sensor_id;sensor_type;location;lat;lon;timestamp;P1;durP1;ratioP1;P2;durP2;ratioP2
2175;SDS011;1094;49.902;10.876;2023-04-19T00:00:45;29.23;;;26.73;;
2175;SDS011;1094;49.902;10.876;2023-04-19T00:03:11;29.37;;;26.77;;
2175;SDS011;1094;49.902;10.876;2023-04-19T00:05:38;30.20;;;27.40;;
2175;SDS011;1094;49.902;10.876;2023-04-19T00:08:05;28.33;;;25.73;;
2175;SDS011;1094;49.902;10.876;2023-04-19T00:10:31;28.90;;;26.20;;
2175;SDS011;1094;49.902;10.876;2023-04-19T00:12:57;28.63;;;26.23;;
2175;SDS011;1094;49.902;10.876;2023-04-19T00:15:23;27.93;;;25.47;;
2175;SDS011;1094;49.902;10.876;2023-04-19T00:17:49;29.60;;;26.60;;
2175;SDS011;1094;49.902;10.876;2023-04-19T00:20:15;28.70;;;26.37;;
2175;SDS011;1094;49.902;10.876;2023-04-19T00:22:41;29.23;;;26.77;;
2175;SDS011;1094;49.902;10.876;2023-04-19T00:25:07;30.83;;;27.67;;
2175;SDS011;1094;49.902;10.876;2023-04-19T00:27:33;29.27;;;26.40;;
2175;SDS011;1094;49.902;10.876;2023-04-19T00:30:00;29.73;;;26.73;;
2175;SDS011;1094;49.902;10.876;2023-04-19T00:32:26;29.63;;;26.90;;
2175;SDS011;1094;49.902;10.876;2023-04-19T00:34:52;30.90;;;28.00;;
2175;SDS011;1094;49.902;10.876;2023-04-19T00:37:18;29.20;;;26.63;;
2175;SDS011;1094;49.902;10.876;2023-04-19T00:39:44;28.90;;;26.40;;
2175;SDS011;1094;49.902;10.876;2023-04-19T00:42:11;31.40;;;28.73;;
2175;SDS011;1094;49.902;10.876;2023-04-19T00:44:37;30.77;;;27.97;;
2175;SDS011;1094;49.902;10.876;2023-04-19T00:47:03;31.67;;;28.77;;
2175;SDS011;1094;49.902;10.876;2023-04-19T00:49:29;32.23;;;29.43;;
2175;SDS011;1094;49.902;10.876;2023-04-19T00:51:55;31.67;;;28.83;;
2175;SDS011;1094;49.902;10.876;2023-04-19T00:54:21;31.40;;;28.60;;
2175;SDS011;1094;49.902;10.876;2023-04-19T00:56:48;32.87;;;30.00;;
2175;SDS011;1094;49.902;10.876;2023-04-19T00:59:14;32.43;;;29.40;;
2175;SDS011;1094;49.902;10.876;2023-04-19T01:01:40;32.07;;;29.43;;
2175;SDS011;1094;49.902;10.876;2023-04-19T01:04:07;31.47;;;28.67;;
2175;SDS011;1094;49.902;10.876;2023-04-19T01:06:33;31.97;;;29.03;;
2175;SDS011;1094;49.902;10.876;2023-04-19T01:08:59;33.90;;;30.57;;
2175;SDS011;1094;49.902;10.876;2023-04-19T01:11:25;36.37;;;32.70;;
2175;SDS011;1094;49.902;10.876;2023-04-19T01:13:53;32.20;;;29.20;;
2175;SDS011;1094;49.902;10.876;2023-04-19T01:16:19;33.10;;;30.10;;
2175;SDS011;1094;49.902;10.876;2023-04-19T01:18:45;34.93;;;31.63;;
2175;SDS011;1094;49.902;10.876;2023-04-19T01:21:11;32.03;;;29.13;;
2175;SDS011;1094;49.902;10.876;2023-04-19T01:23:37;33.60;;;30.30;;
2175;SDS011;1094;49.902;10.876;2023-04-19T01:26:04;32.20;;;29.20;;
2175;SDS011;1094;49.902;10.876;2023-04-19T01:28:30;32.87;;;29.90;;
2175;SDS011;1094;49.902;10.876;2023-04-19T01:30:56;35.07;;;31.57;;
2175;SDS011;1094;49.902;10.876;2023-04-19T01:33:22;33.67;;;30.23;;
2175;SDS011;1094;49.902;10.876;2023-04-19T01:35:48;32.57;;;29.40;;
2175;SDS011;1094;49.902;10.876;2023-04-19T01:38:15;31.47;;;28.47;;
2175;SDS011;1094;49.902;10.876;2023-04-19T01:40:41;33.10;;;30.00;;
2175;SDS011;1094;49.902;10.876;2023-04-19T01:43:07;30.80;;;27.67;;
2175;SDS011;1094;49.902;10.876;2023-04-19T01:45:33;32.73;;;29.47;;
2175;SDS011;1094;49.902;10.876;2023-04-19T01:48:00;31.53;;;28.40;;
2175;SDS011;1094;49.902;10.876;2023-04-19T01:50:27;32.30;;;29.13;;
2175;SDS011;1094;49.902;10.876;2023-04-19T01:52:53;33.80;;;30.37;;
2175;SDS011;1094;49.902;10.876;2023-04-19T01:55:19;34.00;;;30.53;;
2175;SDS011;1094;49.902;10.876;2023-04-19T01:57:44;31.80;;;28.80;;
2175;SDS011;1094;49.902;10.876;2023-04-19T02:00:11;33.50;;;30.30;;
2175;SDS011;1094;49.902;10.876;2023-04-19T02:02:37;30.80;;;28.20;;
2175;SDS011;1094;49.902;10.876;2023-04-19T02:05:06;32.47;;;29.47;;
2175;SDS011;1094;49.902;10.876;2023-04-19T02:07:32;32.07;;;29.30;;
2175;SDS011;1094;49.902;10.876;2023-04-19T02:09:58;33.57;;;30.40;;
2175;SDS011;1094;49.902;10.876;2023-04-19T02:12:27;33.90;;;30.80;;
2175;SDS011;1094;49.902;10.876;2023-04-19T02:14:54;32.83;;;29.80;;
2175;SDS011;1094;49.902;10.876;2023-04-19T02:17:23;31.93;;;28.93;;
2175;SDS011;1094;49.902;10.876;2023-04-19T02:19:49;34.80;;;31.40;;
2175;SDS011;1094;49.902;10.876;2023-04-19T02:22:16;34.97;;;31.40;;
2175;SDS011;1094;49.902;10.876;2023-04-19T02:24:42;33.47;;;30.20;;
2175;SDS011;1094;49.902;10.876;2023-04-19T02:27:07;33.47;;;30.47;;
2175;SDS011;1094;49.902;10.876;2023-04-19T02:29:33;32.17;;;29.20;;
2175;SDS011;1094;49.902;10.876;2023-04-19T02:31:59;34.00;;;30.70;;
2175;SDS011;1094;49.902;10.876;2023-04-19T02:34:29;32.67;;;29.60;;
2175;SDS011;1094;49.902;10.876;2023-04-19T02:36:55;33.13;;;29.90;;
2175;SDS011;1094;49.902;10.876;2023-04-19T02:39:21;32.40;;;29.30;;
2175;SDS011;1094;49.902;10.876;2023-04-19T02:41:47;33.13;;;29.70;;
2175;SDS011;1094;49.902;10.876;2023-04-19T02:44:13;33.30;;;30.27;;
2175;SDS011;1094;49.902;10.876;2023-04-19T02:46:39;35.70;;;32.30;;
2175;SDS011;1094;49.902;10.876;2023-04-19T02:49:05;36.43;;;32.67;;
2175;SDS011;1094;49.902;10.876;2023-04-19T02:51:31;34.20;;;31.17;;
2175;SDS011;1094;49.902;10.876;2023-04-19T02:53:57;33.83;;;29.67;;
2175;SDS011;1094;49.902;10.876;2023-04-19T02:56:23;32.47;;;29.60;;
2175;SDS011;1094;49.902;10.876;2023-04-19T02:58:51;34.50;;;31.27;;
2175;SDS011;1094;49.902;10.876;2023-04-19T03:01:18;32.07;;;29.03;;
2175;SDS011;1094;49.902;10.876;2023-04-19T03:03:44;33.13;;;30.03;;
2175;SDS011;1094;49.902;10.876;2023-04-19T03:06:10;32.17;;;29.40;;
2175;SDS011;1094;49.902;10.876;2023-04-19T03:08:36;33.40;;;30.20;;
2175;SDS011;1094;49.902;10.876;2023-04-19T03:11:02;33.57;;;30.33;;
2175;SDS011;1094;49.902;10.876;2023-04-19T03:13:28;33.93;;;30.67;;
2175;SDS011;1094;49.902;10.876;2023-04-19T03:15:54;34.37;;;31.07;;
2175;SDS011;1094;49.902;10.876;2023-04-19T03:18:20;34.83;;;31.60;;
2175;SDS011;1094;49.902;10.876;2023-04-19T03:20:46;32.80;;;29.73;;
2175;SDS011;1094;49.902;10.876;2023-04-19T03:23:12;32.93;;;30.13;;
2175;SDS011;1094;49.902;10.876;2023-04-19T03:25:38;36.30;;;32.90;;
2175;SDS011;1094;49.902;10.876;2023-04-19T03:28:04;34.00;;;30.80;;
2175;SDS011;1094;49.902;10.876;2023-04-19T03:30:30;32.23;;;29.37;;
2175;SDS011;1094;49.902;10.876;2023-04-19T03:32:56;34.40;;;31.07;;
2175;SDS011;1094;49.902;10.876;2023-04-19T03:35:23;34.87;;;31.40;;
2175;SDS011;1094;49.902;10.876;2023-04-19T03:37:50;34.73;;;31.13;;
2175;SDS011;1094;49.902;10.876;2023-04-19T03:40:16;32.67;;;29.17;;
2175;SDS011;1094;49.902;10.876;2023-04-19T03:42:42;34.87;;;31.47;;
2175;SDS011;1094;49.902;10.876;2023-04-19T03:45:08;34.33;;;30.73;;
2175;SDS011;1094;49.902;10.876;2023-04-19T03:47:34;32.80;;;29.90;;
2175;SDS011;1094;49.902;10.876;2023-04-19T03:50:00;33.10;;;30.00;;
2175;SDS011;1094;49.902;10.876;2023-04-19T03:52:26;32.90;;;29.90;;
2175;SDS011;1094;49.902;10.876;2023-04-19T03:54:52;32.23;;;29.40;;
2175;SDS011;1094;49.902;10.876;2023-04-19T03:57:18;32.33;;;29.43;;
2175;SDS011;1094;49.902;10.876;2023-04-19T03:59:44;33.57;;;30.70;;
2175;SDS011;1094;49.902;10.876;2023-04-19T04:02:10;33.70;;;30.53;;
2175;SDS011;1094;49.902;10.876;2023-04-19T04:04:36;33.77;;;30.77;;
2175;SDS011;1094;49.902;10.876;2023-04-19T04:07:02;38.23;;;30.00;;
2175;SDS011;1094;49.902;10.876;2023-04-19T04:09:27;32.17;;;29.53;;
2175;SDS011;1094;49.902;10.876;2023-04-19T04:11:53;31.57;;;28.83;;
2175;SDS011;1094;49.902;10.876;2023-04-19T04:14:19;31.80;;;28.90;;
2175;SDS011;1094;49.902;10.876;2023-04-19T04:16:45;31.37;;;28.77;;
2175;SDS011;1094;49.902;10.876;2023-04-19T04:19:11;32.60;;;29.20;;
2175;SDS011;1094;49.902;10.876;2023-04-19T04:21:37;34.07;;;30.77;;
2175;SDS011;1094;49.902;10.876;2023-04-19T04:24:03;33.63;;;30.13;;
2175;SDS011;1094;49.902;10.876;2023-04-19T04:26:29;32.60;;;29.60;;
2175;SDS011;1094;49.902;10.876;2023-04-19T04:28:59;32.50;;;29.50;;
2175;SDS011;1094;49.902;10.876;2023-04-19T04:31:29;33.73;;;30.83;;
2175;SDS011;1094;49.902;10.876;2023-04-19T04:33:55;31.63;;;28.50;;
2175;SDS011;1094;49.902;10.876;2023-04-19T04:36:21;34.10;;;30.97;;
2175;SDS011;1094;49.902;10.876;2023-04-19T04:38:48;32.77;;;29.50;;
2175;SDS011;1094;49.902;10.876;2023-04-19T04:41:13;32.37;;;29.43;;
2175;SDS011;1094;49.902;10.876;2023-04-19T04:43:40;33.20;;;30.37;;
2175;SDS011;1094;49.902;10.876;2023-04-19T04:46:06;35.23;;;31.70;;
2175;SDS011;1094;49.902;10.876;2023-04-19T04:48:32;36.13;;;32.70;;
2175;SDS011;1094;49.902;10.876;2023-04-19T04:50:58;35.30;;;32.17;;
2175;SDS011;1094;49.902;10.876;2023-04-19T04:53:27;34.27;;;31.27;;
2175;SDS011;1094;49.902;10.876;2023-04-19T04:55:53;37.33;;;33.57;;
2175;SDS011;1094;49.902;10.876;2023-04-19T04:58:19;34.50;;;31.37;;
2175;SDS011;1094;49.902;10.876;2023-04-19T05:00:45;36.20;;;32.90;;
2175;SDS011;1094;49.902;10.876;2023-04-19T05:03:16;36.90;;;33.50;;
2175;SDS011;1094;49.902;10.876;2023-04-19T05:05:42;37.43;;;34.00;;
2175;SDS011;1094;49.902;10.876;2023-04-19T05:08:07;38.90;;;35.00;;
2175;SDS011;1094;49.902;10.876;2023-04-19T05:10:33;40.87;;;36.50;;
2175;SDS011;1094;49.902;10.876;2023-04-19T05:13:00;39.87;;;36.07;;
2175;SDS011;1094;49.902;10.876;2023-04-19T05:15:26;41.80;;;37.87;;
2175;SDS011;1094;49.902;10.876;2023-04-19T05:17:52;40.77;;;36.77;;
2175;SDS011;1094;49.902;10.876;2023-04-19T05:20:18;41.17;;;36.97;;
2175;SDS011;1094;49.902;10.876;2023-04-19T05:22:44;40.33;;;36.60;;
2175;SDS011;1094;49.902;10.876;2023-04-19T05:25:10;41.97;;;37.90;;
2175;SDS011;1094;49.902;10.876;2023-04-19T05:27:36;40.57;;;36.67;;
2175;SDS011;1094;49.902;10.876;2023-04-19T05:30:02;40.50;;;36.47;;
2175;SDS011;1094;49.902;10.876;2023-04-19T05:32:28;42.03;;;37.63;;
2175;SDS011;1094;49.902;10.876;2023-04-19T05:34:55;40.73;;;36.43;;
2175;SDS011;1094;49.902;10.876;2023-04-19T05:37:20;39.60;;;35.73;;
2175;SDS011;1094;49.902;10.876;2023-04-19T05:39:48;41.70;;;37.50;;
2175;SDS011;1094;49.902;10.876;2023-04-19T05:42:14;40.87;;;36.43;;
2175;SDS011;1094;49.902;10.876;2023-04-19T05:44:40;39.00;;;35.07;;
2175;SDS011;1094;49.902;10.876;2023-04-19T05:47:06;40.40;;;36.60;;
2175;SDS011;1094;49.902;10.876;2023-04-19T05:49:32;38.10;;;34.40;;
2175;SDS011;1094;49.902;10.876;2023-04-19T05:51:58;39.53;;;35.70;;
2175;SDS011;1094;49.902;10.876;2023-04-19T05:54:24;39.93;;;36.03;;
2175;SDS011;1094;49.902;10.876;2023-04-19T05:56:51;37.87;;;34.30;;
2175;SDS011;1094;49.902;10.876;2023-04-19T05:59:17;37.20;;;34.00;;
2175;SDS011;1094;49.902;10.876;2023-04-19T06:01:43;37.60;;;34.10;;
2175;SDS011;1094;49.902;10.876;2023-04-19T06:04:10;35.17;;;31.80;;
2175;SDS011;1094;49.902;10.876;2023-04-19T06:06:37;35.23;;;31.50;;
2175;SDS011;1094;49.902;10.876;2023-04-19T06:09:03;33.27;;;30.60;;
2175;SDS011;1094;49.902;10.876;2023-04-19T06:11:30;33.23;;;30.27;;
2175;SDS011;1094;49.902;10.876;2023-04-19T06:13:56;33.53;;;30.53;;
2175;SDS011;1094;49.902;10.876;2023-04-19T06:16:22;33.97;;;30.70;;
2175;SDS011;1094;49.902;10.876;2023-04-19T06:18:48;33.27;;;30.10;;
2175;SDS011;1094;49.902;10.876;2023-04-19T06:21:14;34.20;;;31.00;;
2175;SDS011;1094;49.902;10.876;2023-04-19T06:23:40;35.23;;;31.83;;
2175;SDS011;1094;49.902;10.876;2023-04-19T06:26:06;33.47;;;30.60;;
2175;SDS011;1094;49.902;10.876;2023-04-19T06:28:32;34.17;;;31.27;;
2175;SDS011;1094;49.902;10.876;2023-04-19T06:30:58;32.63;;;30.03;;
2175;SDS011;1094;49.902;10.876;2023-04-19T06:33:24;32.67;;;29.80;;
2175;SDS011;1094;49.902;10.876;2023-04-19T06:35:50;30.87;;;28.47;;
2175;SDS011;1094;49.902;10.876;2023-04-19T06:38:16;30.90;;;28.40;;
2175;SDS011;1094;49.902;10.876;2023-04-19T06:40:42;29.83;;;27.47;;
2175;SDS011;1094;49.902;10.876;2023-04-19T06:43:08;31.60;;;29.00;;
2175;SDS011;1094;49.902;10.876;2023-04-19T06:45:34;30.60;;;28.10;;
2175;SDS011;1094;49.902;10.876;2023-04-19T06:48:00;28.80;;;26.40;;
2175;SDS011;1094;49.902;10.876;2023-04-19T06:50:26;30.57;;;28.17;;
2175;SDS011;1094;49.902;10.876;2023-04-19T06:52:52;29.83;;;27.40;;
2175;SDS011;1094;49.902;10.876;2023-04-19T06:55:18;31.30;;;28.67;;
2175;SDS011;1094;49.902;10.876;2023-04-19T06:57:44;28.70;;;26.63;;
2175;SDS011;1094;49.902;10.876;2023-04-19T07:00:10;30.17;;;27.50;;
2175;SDS011;1094;49.902;10.876;2023-04-19T07:02:37;29.00;;;26.60;;
2175;SDS011;1094;49.902;10.876;2023-04-19T07:05:03;29.70;;;27.20;;
2175;SDS011;1094;49.902;10.876;2023-04-19T07:07:29;29.23;;;26.90;;
2175;SDS011;1094;49.902;10.876;2023-04-19T07:09:57;28.60;;;26.37;;
2175;SDS011;1094;49.902;10.876;2023-04-19T07:12:23;29.27;;;27.07;;
2175;SDS011;1094;49.902;10.876;2023-04-19T07:14:48;29.30;;;27.00;;
2175;SDS011;1094;49.902;10.876;2023-04-19T07:17:20;29.50;;;26.80;;
2175;SDS011;1094;49.902;10.876;2023-04-19T07:19:46;29.67;;;27.30;;
2175;SDS011;1094;49.902;10.876;2023-04-19T07:22:12;29.47;;;27.07;;
2175;SDS011;1094;49.902;10.876;2023-04-19T07:24:38;30.23;;;27.20;;
2175;SDS011;1094;49.902;10.876;2023-04-19T07:27:05;29.40;;;27.00;;
2175;SDS011;1094;49.902;10.876;2023-04-19T07:29:33;29.53;;;26.87;;
2175;SDS011;1094;49.902;10.876;2023-04-19T07:31:59;29.33;;;26.90;;
2175;SDS011;1094;49.902;10.876;2023-04-19T07:34:25;27.40;;;25.17;;
2175;SDS011;1094;49.902;10.876;2023-04-19T07:36:51;28.97;;;26.70;;
2175;SDS011;1094;49.902;10.876;2023-04-19T07:39:17;29.77;;;27.17;;
2175;SDS011;1094;49.902;10.876;2023-04-19T07:41:43;29.40;;;26.60;;
2175;SDS011;1094;49.902;10.876;2023-04-19T07:44:10;28.60;;;26.50;;
2175;SDS011;1094;49.902;10.876;2023-04-19T07:46:37;28.53;;;26.17;;
2175;SDS011;1094;49.902;10.876;2023-04-19T07:49:03;29.30;;;26.90;;
2175;SDS011;1094;49.902;10.876;2023-04-19T07:51:29;28.60;;;26.33;;
2175;SDS011;1094;49.902;10.876;2023-04-19T07:53:55;28.50;;;26.27;;
2175;SDS011;1094;49.902;10.876;2023-04-19T07:56:21;27.43;;;25.50;;
2175;SDS011;1094;49.902;10.876;2023-04-19T07:58:49;27.80;;;25.60;;
2175;SDS011;1094;49.902;10.876;2023-04-19T08:01:15;27.30;;;25.00;;
2175;SDS011;1094;49.902;10.876;2023-04-19T08:03:41;27.93;;;25.87;;
2175;SDS011;1094;49.902;10.876;2023-04-19T08:06:07;26.23;;;24.37;;
2175;SDS011;1094;49.902;10.876;2023-04-19T08:08:33;27.63;;;25.33;;
2175;SDS011;1094;49.902;10.876;2023-04-19T08:10:59;27.33;;;25.07;;
2175;SDS011;1094;49.902;10.876;2023-04-19T08:13:28;25.47;;;23.60;;
2175;SDS011;1094;49.902;10.876;2023-04-19T08:18:29;25.00;;;23.10;;
2175;SDS011;1094;49.902;10.876;2023-04-19T08:20:56;24.53;;;22.80;;
2175;SDS011;1094;49.902;10.876;2023-04-19T08:23:22;24.97;;;23.20;;
2175;SDS011;1094;49.902;10.876;2023-04-19T08:25:48;24.37;;;22.73;;
2175;SDS011;1094;49.902;10.876;2023-04-19T08:28:15;26.67;;;24.77;;
2175;SDS011;1094;49.902;10.876;2023-04-19T08:30:41;25.80;;;23.90;;
2175;SDS011;1094;49.902;10.876;2023-04-19T08:33:07;25.27;;;23.27;;
2175;SDS011;1094;49.902;10.876;2023-04-19T08:35:34;26.97;;;24.97;;
2175;SDS011;1094;49.902;10.876;2023-04-19T08:38:00;25.23;;;23.43;;
2175;SDS011;1094;49.902;10.876;2023-04-19T08:40:29;25.43;;;23.67;;
2175;SDS011;1094;49.902;10.876;2023-04-19T08:42:55;25.40;;;23.30;;
2175;SDS011;1094;49.902;10.876;2023-04-19T08:45:22;26.37;;;24.47;;
2175;SDS011;1094;49.902;10.876;2023-04-19T08:47:50;26.93;;;24.70;;
2175;SDS011;1094;49.902;10.876;2023-04-19T08:50:16;26.03;;;24.33;;
2175;SDS011;1094;49.902;10.876;2023-04-19T08:52:45;26.27;;;24.33;;
2175;SDS011;1094;49.902;10.876;2023-04-19T08:55:12;27.30;;;25.30;;
2175;SDS011;1094;49.902;10.876;2023-04-19T08:57:38;28.40;;;26.27;;
2175;SDS011;1094;49.902;10.876;2023-04-19T09:00:04;27.70;;;25.80;;
2175;SDS011;1094;49.902;10.876;2023-04-19T09:02:46;28.20;;;25.90;;
2175;SDS011;1094;49.902;10.876;2023-04-19T09:05:13;28.03;;;25.57;;
2175;SDS011;1094;49.902;10.876;2023-04-19T09:07:39;27.73;;;25.53;;
2175;SDS011;1094;49.902;10.876;2023-04-19T09:10:07;26.10;;;24.00;;
2175;SDS011;1094;49.902;10.876;2023-04-19T09:12:33;25.73;;;23.73;;
2175;SDS011;1094;49.902;10.876;2023-04-19T09:15:00;25.83;;;23.83;;
2175;SDS011;1094;49.902;10.876;2023-04-19T09:17:28;26.63;;;24.53;;
2175;SDS011;1094;49.902;10.876;2023-04-19T09:19:54;27.40;;;25.40;;
2175;SDS011;1094;49.902;10.876;2023-04-19T09:22:20;26.10;;;24.10;;
2175;SDS011;1094;49.902;10.876;2023-04-19T09:24:46;31.00;;;25.67;;
2175;SDS011;1094;49.902;10.876;2023-04-19T09:27:13;26.43;;;24.47;;
2175;SDS011;1094;49.902;10.876;2023-04-19T09:29:39;27.87;;;25.63;;
2175;SDS011;1094;49.902;10.876;2023-04-19T09:32:05;27.43;;;25.20;;
2175;SDS011;1094;49.902;10.876;2023-04-19T09:34:31;28.73;;;26.13;;
2175;SDS011;1094;49.902;10.876;2023-04-19T09:36:57;28.10;;;25.73;;
2175;SDS011;1094;49.902;10.876;2023-04-19T09:39:36;26.47;;;24.37;;
2175;SDS011;1094;49.902;10.876;2023-04-19T09:42:02;26.97;;;24.67;;
2175;SDS011;1094;49.902;10.876;2023-04-19T09:44:28;26.63;;;24.33;;
2175;SDS011;1094;49.902;10.876;2023-04-19T09:46:54;26.13;;;24.13;;
2175;SDS011;1094;49.902;10.876;2023-04-19T09:49:21;26.17;;;24.07;;
2175;SDS011;1094;49.902;10.876;2023-04-19T09:51:52;26.10;;;24.00;;
2175;SDS011;1094;49.902;10.876;2023-04-19T09:54:19;25.90;;;23.43;;
2175;SDS011;1094;49.902;10.876;2023-04-19T09:56:46;26.60;;;24.50;;
2175;SDS011;1094;49.902;10.876;2023-04-19T09:59:12;24.10;;;22.33;;
2175;SDS011;1094;49.902;10.876;2023-04-19T10:01:39;24.40;;;22.63;;
2175;SDS011;1094;49.902;10.876;2023-04-19T10:04:08;24.17;;;22.20;;
2175;SDS011;1094;49.902;10.876;2023-04-19T10:06:35;22.57;;;21.03;;
2175;SDS011;1094;49.902;10.876;2023-04-19T10:09:01;22.47;;;20.87;;
2175;SDS011;1094;49.902;10.876;2023-04-19T10:11:30;22.43;;;20.80;;
2175;SDS011;1094;49.902;10.876;2023-04-19T10:14:00;21.60;;;20.10;;
2175;SDS011;1094;49.902;10.876;2023-04-19T10:16:29;21.77;;;20.20;;
2175;SDS011;1094;49.902;10.876;2023-04-19T10:18:55;21.70;;;20.30;;
2175;SDS011;1094;49.902;10.876;2023-04-19T10:21:21;21.30;;;20.00;;
2175;SDS011;1094;49.902;10.876;2023-04-19T10:23:48;20.60;;;19.40;;
2175;SDS011;1094;49.902;10.876;2023-04-19T10:26:14;19.30;;;18.20;;
2175;SDS011;1094;49.902;10.876;2023-04-19T10:28:40;20.57;;;19.17;;
2175;SDS011;1094;49.902;10.876;2023-04-19T10:31:07;19.00;;;17.87;;
2175;SDS011;1094;49.902;10.876;2023-04-19T10:33:36;18.60;;;17.60;;
2175;SDS011;1094;49.902;10.876;2023-04-19T10:36:02;19.07;;;17.87;;
2175;SDS011;1094;49.902;10.876;2023-04-19T10:38:35;19.13;;;18.03;;
2175;SDS011;1094;49.902;10.876;2023-04-19T10:41:01;18.67;;;17.63;;
2175;SDS011;1094;49.902;10.876;2023-04-19T10:43:35;17.47;;;16.47;;
2175;SDS011;1094;49.902;10.876;2023-04-19T10:46:09;18.03;;;17.03;;
2175;SDS011;1094;49.902;10.876;2023-04-19T10:48:38;18.90;;;17.70;;
2175;SDS011;1094;49.902;10.876;2023-04-19T10:51:14;18.97;;;17.60;;
2175;SDS011;1094;49.902;10.876;2023-04-19T10:56:10;18.00;;;17.00;;
2175;SDS011;1094;49.902;10.876;2023-04-19T11:03:58;18.03;;;16.83;;
2175;SDS011;1094;49.902;10.876;2023-04-19T11:06:24;19.03;;;17.87;;
2175;SDS011;1094;49.902;10.876;2023-04-19T11:08:52;18.23;;;17.23;;
2175;SDS011;1094;49.902;10.876;2023-04-19T11:11:18;18.50;;;17.40;;
2175;SDS011;1094;49.902;10.876;2023-04-19T11:13:48;18.20;;;17.20;;
2175;SDS011;1094;49.902;10.876;2023-04-19T11:16:13;18.30;;;17.37;;
2175;SDS011;1094;49.902;10.876;2023-04-19T11:18:40;18.80;;;17.80;;
2175;SDS011;1094;49.902;10.876;2023-04-19T11:21:06;18.40;;;17.40;;
2175;SDS011;1094;49.902;10.876;2023-04-19T11:23:32;18.87;;;17.67;;
2175;SDS011;1094;49.902;10.876;2023-04-19T11:25:58;18.30;;;17.30;;
2175;SDS011;1094;49.902;10.876;2023-04-19T11:28:26;18.03;;;17.13;;
2175;SDS011;1094;49.902;10.876;2023-04-19T11:30:52;18.60;;;17.50;;
2175;SDS011;1094;49.902;10.876;2023-04-19T11:33:18;19.00;;;17.97;;
2175;SDS011;1094;49.902;10.876;2023-04-19T11:35:49;18.60;;;17.50;;
2175;SDS011;1094;49.902;10.876;2023-04-19T11:38:15;18.00;;;17.00;;
2175;SDS011;1094;49.902;10.876;2023-04-19T11:40:41;18.20;;;17.10;;
2175;SDS011;1094;49.902;10.876;2023-04-19T11:43:07;18.30;;;17.33;;
2175;SDS011;1094;49.902;10.876;2023-04-19T11:45:36;18.00;;;17.10;;
2175;SDS011;1094;49.902;10.876;2023-04-19T11:48:03;18.27;;;17.33;;
2175;SDS011;1094;49.902;10.876;2023-04-19T11:50:30;18.17;;;17.13;;
2175;SDS011;1094;49.902;10.876;2023-04-19T11:52:56;17.77;;;16.77;;
2175;SDS011;1094;49.902;10.876;2023-04-19T11:55:22;18.20;;;17.23;;
2175;SDS011;1094;49.902;10.876;2023-04-19T11:57:48;18.37;;;17.37;;
2175;SDS011;1094;49.902;10.876;2023-04-19T12:00:15;18.27;;;17.00;;
2175;SDS011;1094;49.902;10.876;2023-04-19T12:02:41;18.83;;;17.73;;
2175;SDS011;1094;49.902;10.876;2023-04-19T12:05:08;18.67;;;17.77;;
2175;SDS011;1094;49.902;10.876;2023-04-19T12:07:35;18.83;;;17.83;;
2175;SDS011;1094;49.902;10.876;2023-04-19T12:10:07;20.23;;;18.60;;
2175;SDS011;1094;49.902;10.876;2023-04-19T12:12:34;19.87;;;18.47;;
2175;SDS011;1094;49.902;10.876;2023-04-19T12:15:00;19.00;;;18.00;;
2175;SDS011;1094;49.902;10.876;2023-04-19T12:17:26;19.23;;;18.03;;
2175;SDS011;1094;49.902;10.876;2023-04-19T12:19:52;19.57;;;18.47;;
2175;SDS011;1094;49.902;10.876;2023-04-19T12:22:18;18.87;;;17.83;;
2175;SDS011;1094;49.902;10.876;2023-04-19T12:24:45;19.97;;;18.67;;
2175;SDS011;1094;49.902;10.876;2023-04-19T12:27:11;19.10;;;18.10;;
2175;SDS011;1094;49.902;10.876;2023-04-19T12:29:37;19.43;;;18.23;;
2175;SDS011;1094;49.902;10.876;2023-04-19T12:32:03;18.90;;;17.60;;
2175;SDS011;1094;49.902;10.876;2023-04-19T12:34:29;19.00;;;17.90;;
2175;SDS011;1094;49.902;10.876;2023-04-19T12:36:56;18.87;;;17.73;;
2175;SDS011;1094;49.902;10.876;2023-04-19T12:39:22;19.57;;;18.07;;
2175;SDS011;1094;49.902;10.876;2023-04-19T12:41:48;18.57;;;17.47;;
2175;SDS011;1094;49.902;10.876;2023-04-19T12:44:14;18.67;;;17.77;;
2175;SDS011;1094;49.902;10.876;2023-04-19T12:46:40;19.77;;;18.50;;
2175;SDS011;1094;49.902;10.876;2023-04-19T12:49:06;19.93;;;18.50;;
2175;SDS011;1094;49.902;10.876;2023-04-19T12:51:32;19.30;;;18.13;;
2175;SDS011;1094;49.902;10.876;2023-04-19T12:54:00;20.17;;;18.77;;
2175;SDS011;1094;49.902;10.876;2023-04-19T12:56:26;20.07;;;18.87;;
2175;SDS011;1094;49.902;10.876;2023-04-19T12:58:52;20.10;;;18.90;;
2175;SDS011;1094;49.902;10.876;2023-04-19T13:01:18;20.67;;;19.47;;
2175;SDS011;1094;49.902;10.876;2023-04-19T13:03:44;21.50;;;20.20;;
2175;SDS011;1094;49.902;10.876;2023-04-19T13:06:10;20.70;;;19.50;;
2175;SDS011;1094;49.902;10.876;2023-04-19T13:08:39;21.27;;;20.07;;
2175;SDS011;1094;49.902;10.876;2023-04-19T13:11:05;21.57;;;20.27;;
2175;SDS011;1094;49.902;10.876;2023-04-19T13:13:31;20.00;;;19.00;;
2175;SDS011;1094;49.902;10.876;2023-04-19T13:15:57;21.37;;;20.07;;
2175;SDS011;1094;49.902;10.876;2023-04-19T13:18:23;20.80;;;19.60;;
2175;SDS011;1094;49.902;10.876;2023-04-19T13:20:49;20.80;;;19.70;;
2175;SDS011;1094;49.902;10.876;2023-04-19T13:23:17;21.17;;;19.80;;
2175;SDS011;1094;49.902;10.876;2023-04-19T13:25:43;21.10;;;19.70;;
2175;SDS011;1094;49.902;10.876;2023-04-19T13:28:09;21.57;;;19.90;;
2175;SDS011;1094;49.902;10.876;2023-04-19T13:30:35;20.60;;;19.40;;
2175;SDS011;1094;49.902;10.876;2023-04-19T13:33:01;20.90;;;19.70;;
2175;SDS011;1094;49.902;10.876;2023-04-19T13:35:27;21.17;;;19.93;;
2175;SDS011;1094;49.902;10.876;2023-04-19T13:37:53;20.63;;;19.43;;
2175;SDS011;1094;49.902;10.876;2023-04-19T13:40:19;22.53;;;21.10;;
2175;SDS011;1094;49.902;10.876;2023-04-19T13:42:45;22.37;;;20.90;;
2175;SDS011;1094;49.902;10.876;2023-04-19T13:45:12;21.90;;;20.30;;
2175;SDS011;1094;49.902;10.876;2023-04-19T13:47:38;21.40;;;20.20;;
2175;SDS011;1094;49.902;10.876;2023-04-19T13:50:04;21.20;;;20.00;;
2175;SDS011;1094;49.902;10.876;2023-04-19T13:52:30;21.30;;;20.10;;
2175;SDS011;1094;49.902;10.876;2023-04-19T13:54:57;21.30;;;19.90;;
2175;SDS011;1094;49.902;10.876;2023-04-19T13:57:23;21.63;;;20.10;;
2175;SDS011;1094;49.902;10.876;2023-04-19T13:59:49;21.37;;;20.17;;
2175;SDS011;1094;49.902;10.876;2023-04-19T14:02:15;22.53;;;20.90;;
2175;SDS011;1094;49.902;10.876;2023-04-19T14:04:41;21.83;;;20.50;;
2175;SDS011;1094;49.902;10.876;2023-04-19T14:07:07;21.60;;;20.30;;
2175;SDS011;1094;49.902;10.876;2023-04-19T14:09:33;20.70;;;19.60;;
2175;SDS011;1094;49.902;10.876;2023-04-19T14:12:00;21.23;;;19.97;;
2175;SDS011;1094;49.902;10.876;2023-04-19T14:14:28;21.90;;;20.40;;
2175;SDS011;1094;49.902;10.876;2023-04-19T14:16:54;21.30;;;20.10;;
2175;SDS011;1094;49.902;10.876;2023-04-19T14:19:20;22.33;;;20.93;;
2175;SDS011;1094;49.902;10.876;2023-04-19T14:21:46;21.30;;;20.10;;
2175;SDS011;1094;49.902;10.876;2023-04-19T14:24:12;21.00;;;19.60;;
2175;SDS011;1094;49.902;10.876;2023-04-19T14:26:38;21.93;;;20.20;;
2175;SDS011;1094;49.902;10.876;2023-04-19T14:29:04;22.37;;;20.93;;
2175;SDS011;1094;49.902;10.876;2023-04-19T14:31:30;21.57;;;20.27;;
2175;SDS011;1094;49.902;10.876;2023-04-19T14:33:56;21.80;;;20.40;;
2175;SDS011;1094;49.902;10.876;2023-04-19T14:36:23;21.10;;;19.90;;
2175;SDS011;1094;49.902;10.876;2023-04-19T14:38:50;21.60;;;20.30;;